createdAt,value
2022-12-11T00:00:56.951Z,8.54
2022-12-11T00:02:29.638Z,8.54
2022-12-11T00:04:01.650Z,8.53
2022-12-11T00:05:33.961Z,8.53
2022-12-11T00:07:06.052Z,8.51
2022-12-11T00:08:38.253Z,8.51
2022-12-11T00:10:10.312Z,8.53
2022-12-11T00:11:42.222Z,8.50
2022-12-11T00:13:14.178Z,8.51
2022-12-11T00:14:46.120Z,8.53
2022-12-11T00:16:20.385Z,8.54
2022-12-11T00:17:56.015Z,8.52
2022-12-11T00:19:28.113Z,8.55
2022-12-11T00:21:05.340Z,8.58
2022-12-11T00:22:37.404Z,8.54
2022-12-11T00:24:09.497Z,8.54
2022-12-11T00:25:46.194Z,8.58
2022-12-11T00:27:18.123Z,8.53
2022-12-11T00:28:54.181Z,8.54
2022-12-11T00:30:26.213Z,8.48
2022-12-11T00:31:58.239Z,8.48
2022-12-11T00:33:30.239Z,8.46
2022-12-11T00:35:02.325Z,8.45
2022-12-11T00:36:34.616Z,8.46
2022-12-11T00:38:06.721Z,8.44
2022-12-11T00:39:40.167Z,8.44
2022-12-11T00:41:12.772Z,8.44
2022-12-11T00:42:44.709Z,8.40
2022-12-11T00:44:16.721Z,8.38
2022-12-11T00:45:49.093Z,8.36
2022-12-11T00:47:21.143Z,8.30
2022-12-11T00:48:53.870Z,8.29
2022-12-11T00:50:25.969Z,8.27
2022-12-11T00:51:58.031Z,8.26
2022-12-11T00:53:30.128Z,8.26
2022-12-11T00:55:02.136Z,8.28
2022-12-11T00:56:35.155Z,8.29
2022-12-11T00:58:07.466Z,8.26
2022-12-11T00:59:39.766Z,8.24
2022-12-11T01:01:15.055Z,8.24
2022-12-11T01:02:47.111Z,8.10
2022-12-11T01:04:19.598Z,8.09
2022-12-11T01:05:56.304Z,8.13
2022-12-11T01:07:28.257Z,8.09
2022-12-11T01:09:18.796Z,8.04
2022-12-11T01:10:50.800Z,8.06
2022-12-11T01:12:25.142Z,8.09
2022-12-11T01:13:57.182Z,8.05
2022-12-11T01:15:41.773Z,8.09
2022-12-11T01:17:14.102Z,8.06
2022-12-11T01:18:46.061Z,8.04
2022-12-11T01:20:19.639Z,8.05
2022-12-11T01:21:51.618Z,8.02
2022-12-11T01:23:23.583Z,8.03
2022-12-11T01:24:55.561Z,8.03
2022-12-11T01:26:27.594Z,8.02
2022-12-11T01:27:59.916Z,8.01
2022-12-11T01:29:32.795Z,8.00
2022-12-11T01:31:12.925Z,8.01
2022-12-11T01:32:45.019Z,7.96
2022-12-11T01:34:17.004Z,7.93
2022-12-11T01:35:49.013Z,7.91
2022-12-11T01:37:24.228Z,7.91
2022-12-11T01:38:56.753Z,7.91
2022-12-11T01:40:28.710Z,7.90
2022-12-11T01:42:01.553Z,7.90
2022-12-11T01:43:33.586Z,7.86
2022-12-11T01:45:35.654Z,7.90
2022-12-11T01:47:08.102Z,7.86
2022-12-11T01:48:42.572Z,7.87
2022-12-11T01:50:14.855Z,7.82
2022-12-11T01:51:57.740Z,7.84
2022-12-11T01:53:35.911Z,7.83
2022-12-11T01:55:10.044Z,7.80
2022-12-11T01:56:44.271Z,7.80
2022-12-11T01:58:17.286Z,7.76
2022-12-11T01:59:49.325Z,7.72
2022-12-11T02:01:27.435Z,7.66
2022-12-11T02:02:59.475Z,7.63
2022-12-11T02:04:32.626Z,7.65
2022-12-11T02:06:05.054Z,7.64
2022-12-11T02:07:47.342Z,7.66
2022-12-11T02:09:25.357Z,7.68
2022-12-11T02:11:16.366Z,7.69
2022-12-11T02:12:55.076Z,7.69
2022-12-11T02:14:48.447Z,7.70
2022-12-11T02:16:32.499Z,7.70
2022-12-11T02:18:34.366Z,7.72
2022-12-11T02:20:22.470Z,7.70
2022-12-11T02:21:55.318Z,7.68
2022-12-11T02:23:48.576Z,7.72
2022-12-11T02:25:37.656Z,7.71
2022-12-11T02:27:35.691Z,7.75
2022-12-11T02:29:09.641Z,7.72
2022-12-11T02:30:43.187Z,7.72
2022-12-11T02:32:24.098Z,7.74
2022-12-11T02:34:05.861Z,7.76
2022-12-11T02:35:41.632Z,7.76
2022-12-11T02:37:19.165Z,7.76
2022-12-11T02:38:52.905Z,7.78
2022-12-11T02:40:27.457Z,7.80
2022-12-11T02:42:00.111Z,7.81
2022-12-11T02:43:33.081Z,7.82
2022-12-11T02:45:06.529Z,7.84
2022-12-11T02:46:38.427Z,7.86
2022-12-11T02:48:11.571Z,7.79
2022-12-11T02:51:17.611Z,7.76
2022-12-11T02:52:51.453Z,7.78
2022-12-11T02:54:28.213Z,7.81
2022-12-11T02:56:13.841Z,7.74
2022-12-11T02:57:59.010Z,7.74
2022-12-11T02:59:39.628Z,7.79
2022-12-11T03:01:11.779Z,7.76
2022-12-11T03:02:44.508Z,7.73
2022-12-11T03:04:16.692Z,7.79
2022-12-11T03:05:51.390Z,7.81
2022-12-11T03:07:26.155Z,7.91
2022-12-11T03:08:58.172Z,7.90
2022-12-11T03:10:30.442Z,7.95
2022-12-11T03:12:02.516Z,7.97
2022-12-11T03:13:34.579Z,7.99
2022-12-11T03:15:14.085Z,8.03
2022-12-11T03:16:57.444Z,8.06
2022-12-11T03:18:44.407Z,8.07
2022-12-11T03:20:19.274Z,8.00
2022-12-11T03:21:59.172Z,8.04
2022-12-11T03:23:36.290Z,8.06
2022-12-11T03:25:13.631Z,8.08
2022-12-11T03:26:56.185Z,8.04
2022-12-11T03:28:54.866Z,8.07
2022-12-11T03:30:29.467Z,8.05
2022-12-11T03:32:29.197Z,8.07
2022-12-11T03:34:04.055Z,8.04
2022-12-11T03:35:40.630Z,8.06
2022-12-11T03:37:13.907Z,7.96
2022-12-11T03:39:00.661Z,7.94
2022-12-11T03:40:34.287Z,7.88
2022-12-11T03:42:08.886Z,7.82
2022-12-11T03:43:41.154Z,7.74
2022-12-11T03:45:13.859Z,7.78
2022-12-11T03:46:46.799Z,7.78
2022-12-11T03:48:19.506Z,7.79
2022-12-11T03:49:52.627Z,7.85
2022-12-11T03:51:25.085Z,7.86
2022-12-11T03:52:57.376Z,7.86
2022-12-11T03:54:29.815Z,7.87
2022-12-11T03:56:03.461Z,7.90
2022-12-11T03:57:37.063Z,7.88
2022-12-11T03:59:09.166Z,7.88
2022-12-11T04:00:41.217Z,7.78
2022-12-11T04:02:13.253Z,7.75
2022-12-11T04:03:45.339Z,7.76
2022-12-11T04:05:17.321Z,7.79
2022-12-11T04:06:49.310Z,7.81
2022-12-11T04:08:25.082Z,7.80
2022-12-11T04:09:57.300Z,7.80
2022-12-11T04:11:34.935Z,7.76
2022-12-11T04:13:07.553Z,7.75
2022-12-11T04:14:58.131Z,7.72
2022-12-11T04:16:30.096Z,7.75
2022-12-11T04:18:20.313Z,7.76
2022-12-11T04:20:10.904Z,7.75
2022-12-11T04:22:01.545Z,7.76
2022-12-11T04:23:52.255Z,7.75
2022-12-11T04:25:24.295Z,7.70
2022-12-11T04:26:56.226Z,7.67
2022-12-11T04:28:28.206Z,7.63
2022-12-11T04:30:00.205Z,7.61
2022-12-11T04:31:32.498Z,7.57
2022-12-11T04:33:04.643Z,7.53
2022-12-11T04:34:36.678Z,7.45
2022-12-11T04:36:09.952Z,7.47
2022-12-11T04:37:42.677Z,7.47
2022-12-11T04:39:14.662Z,7.47
2022-12-11T04:40:46.601Z,7.48
2022-12-11T04:42:18.693Z,7.48
2022-12-11T04:43:50.787Z,7.48
2022-12-11T04:45:22.882Z,7.45
2022-12-11T04:46:55.251Z,7.52
2022-12-11T04:48:27.362Z,7.55
2022-12-11T04:49:59.443Z,7.62
2022-12-11T04:51:31.448Z,7.62
2022-12-11T04:53:03.489Z,7.55
2022-12-11T04:54:35.516Z,7.47
2022-12-11T04:56:13.603Z,7.52
2022-12-11T04:57:45.610Z,7.50
2022-12-11T04:59:17.819Z,7.62
2022-12-11T05:00:49.872Z,7.76
2022-12-11T05:02:21.931Z,7.95
2022-12-11T05:03:54.064Z,8.04
2022-12-11T05:05:26.098Z,8.14
2022-12-11T05:06:58.087Z,8.28
2022-12-11T05:08:30.127Z,8.38
2022-12-11T05:10:02.350Z,8.43
2022-12-11T05:11:34.396Z,8.46
2022-12-11T05:13:06.481Z,8.49
2022-12-11T05:14:38.599Z,8.53
2022-12-11T05:17:45.852Z,8.52
2022-12-11T05:19:17.895Z,8.56
2022-12-11T05:21:02.235Z,8.60
2022-12-11T05:22:34.232Z,8.55
2022-12-11T05:24:06.638Z,8.55
2022-12-11T05:25:38.613Z,8.56
2022-12-11T05:27:13.722Z,8.54
2022-12-11T05:28:46.235Z,8.54
2022-12-11T05:30:18.268Z,8.54
2022-12-11T05:31:50.280Z,8.46
2022-12-11T05:33:22.396Z,8.47
2022-12-11T05:34:54.463Z,8.46
2022-12-11T05:36:29.500Z,8.48
2022-12-11T05:38:01.827Z,8.45
2022-12-11T05:39:33.897Z,8.43
2022-12-11T05:41:07.187Z,8.40
2022-12-11T05:42:39.207Z,8.38
2022-12-11T05:44:13.613Z,8.44
2022-12-11T05:45:45.673Z,8.40
2022-12-11T05:47:20.537Z,8.41
2022-12-11T05:48:56.041Z,8.45
2022-12-11T05:50:31.086Z,8.49
2022-12-11T05:52:03.143Z,8.46
2022-12-11T05:53:36.781Z,8.51
2022-12-11T05:55:10.052Z,8.50
2022-12-11T05:56:42.417Z,8.54
2022-12-11T05:58:14.508Z,8.52
2022-12-11T05:59:46.553Z,8.50
2022-12-11T06:01:21.375Z,8.52
2022-12-11T06:02:53.541Z,8.49
2022-12-11T06:04:25.573Z,8.48
2022-12-11T06:05:57.538Z,8.48
2022-12-11T06:07:29.648Z,8.51
2022-12-11T06:09:02.379Z,8.52
2022-12-11T06:10:34.984Z,8.47
2022-12-11T06:12:07.183Z,8.50
2022-12-11T06:13:39.230Z,8.50
2022-12-11T06:15:11.680Z,8.51
2022-12-11T06:16:43.863Z,8.55
2022-12-11T06:18:15.886Z,8.57
2022-12-11T06:19:47.966Z,8.59
2022-12-11T06:21:22.694Z,8.64
2022-12-11T06:22:54.670Z,8.53
2022-12-11T06:24:26.816Z,8.59
2022-12-11T06:25:58.962Z,8.62
2022-12-11T06:27:31.369Z,8.65
2022-12-11T06:29:08.864Z,8.69
2022-12-11T06:30:42.910Z,8.68
2022-12-11T06:32:15.003Z,8.70
2022-12-11T06:33:47.638Z,8.74
2022-12-11T06:35:19.571Z,8.73
2022-12-11T06:36:51.718Z,8.75
2022-12-11T06:38:24.103Z,8.76
2022-12-11T06:39:56.091Z,8.73
2022-12-11T06:41:28.122Z,8.74
2022-12-11T06:43:00.248Z,8.78
2022-12-11T06:44:32.225Z,8.80
2022-12-11T06:46:05.801Z,8.85
2022-12-11T06:47:37.876Z,8.84
2022-12-11T06:49:09.849Z,8.86
2022-12-11T06:50:41.864Z,8.89
2022-12-11T06:52:18.352Z,8.96
2022-12-11T06:53:55.500Z,9.03
2022-12-11T06:55:27.542Z,9.05
2022-12-11T06:56:59.618Z,9.07
2022-12-11T06:58:31.943Z,9.15
2022-12-11T07:00:04.786Z,9.20
2022-12-11T07:01:36.778Z,9.22
2022-12-11T07:03:10.419Z,9.28
2022-12-11T07:04:42.810Z,9.29
2022-12-11T07:06:15.593Z,9.32
2022-12-11T07:07:47.862Z,9.34
2022-12-11T07:09:20.237Z,9.38
2022-12-11T07:10:52.251Z,9.38
2022-12-11T07:12:24.351Z,9.41
2022-12-11T07:13:59.790Z,9.48
2022-12-11T07:15:33.575Z,9.47
2022-12-11T07:17:07.354Z,9.52
2022-12-11T07:18:41.025Z,9.58
2022-12-11T07:20:13.091Z,9.59
2022-12-11T07:21:45.084Z,9.60
2022-12-11T07:23:17.144Z,9.65
2022-12-11T07:24:49.273Z,9.68
2022-12-11T07:26:22.423Z,9.72
2022-12-11T07:27:54.369Z,9.66
2022-12-11T07:29:26.408Z,9.75
2022-12-11T07:30:58.336Z,9.82
2022-12-11T07:32:30.507Z,9.92
2022-12-11T07:34:05.698Z,10.08
2022-12-11T07:35:38.220Z,10.15
2022-12-11T07:37:10.241Z,10.22
2022-12-11T07:38:42.305Z,10.28
2022-12-11T07:40:14.626Z,10.29
2022-12-11T07:41:47.432Z,10.34
2022-12-11T07:43:19.585Z,10.30
2022-12-11T07:44:51.706Z,10.32
2022-12-11T07:46:27.062Z,10.45
2022-12-11T07:47:59.454Z,10.49
2022-12-11T07:49:33.532Z,10.47
2022-12-11T07:51:28.217Z,10.43
2022-12-11T07:53:00.257Z,10.33
2022-12-11T07:54:32.290Z,10.29
2022-12-11T07:56:04.865Z,10.26
2022-12-11T07:57:37.183Z,10.31
2022-12-11T07:59:09.185Z,10.32
2022-12-11T08:00:41.208Z,10.37
2022-12-11T08:02:13.287Z,10.20
2022-12-11T08:03:46.091Z,10.21
2022-12-11T08:05:18.400Z,10.14
2022-12-11T08:06:50.397Z,10.19
2022-12-11T08:08:22.579Z,10.21
2022-12-11T08:09:54.679Z,10.07
2022-12-11T08:11:27.064Z,10.15
2022-12-11T08:12:59.020Z,10.04
2022-12-11T08:14:31.056Z,9.92
2022-12-11T08:16:08.131Z,9.98
2022-12-11T08:17:40.430Z,9.81
2022-12-11T08:19:13.061Z,9.70
2022-12-11T08:20:45.168Z,9.64
2022-12-11T08:22:17.260Z,9.52
2022-12-11T08:23:49.851Z,9.48
2022-12-11T08:25:21.832Z,9.42
2022-12-11T08:26:54.137Z,9.53
2022-12-11T08:28:27.313Z,9.45
2022-12-11T08:29:59.520Z,9.41
2022-12-11T08:31:31.812Z,9.49
2022-12-11T08:33:03.875Z,9.52
2022-12-11T08:34:35.951Z,9.48
2022-12-11T08:36:10.992Z,9.48
2022-12-11T08:37:43.025Z,9.38
2022-12-11T08:39:15.286Z,9.26
2022-12-11T08:40:47.378Z,9.18
2022-12-11T08:42:19.412Z,8.97
2022-12-11T08:43:55.513Z,9.02
2022-12-11T08:45:27.644Z,8.97
2022-12-11T08:46:59.623Z,8.98
2022-12-11T08:48:31.735Z,8.93
2022-12-11T08:50:04.663Z,8.93
2022-12-11T08:51:36.638Z,8.86
2022-12-11T08:53:08.655Z,8.96
2022-12-11T08:56:20.952Z,9.02
2022-12-11T08:57:53.012Z,8.95
2022-12-11T08:59:25.952Z,8.95
2022-12-11T09:00:58.262Z,8.96
2022-12-11T09:02:30.333Z,8.90
2022-12-11T09:04:02.583Z,8.85
2022-12-11T09:05:35.341Z,8.87
2022-12-11T09:07:07.388Z,8.79
2022-12-11T09:08:39.628Z,8.80
2022-12-11T09:10:11.779Z,8.73
2022-12-11T09:11:43.941Z,8.78
2022-12-11T09:13:15.958Z,8.78
2022-12-11T09:14:48.171Z,8.82
2022-12-11T09:16:22.748Z,8.78
2022-12-11T09:17:54.722Z,8.75
2022-12-11T09:19:31.908Z,8.72
2022-12-11T09:21:09.788Z,8.73
2022-12-11T09:22:43.154Z,8.74
2022-12-11T09:24:15.889Z,8.83
2022-12-11T09:25:48.395Z,8.82
2022-12-11T09:27:21.690Z,8.86
2022-12-11T09:28:55.115Z,8.89
2022-12-11T09:30:27.778Z,8.87
2022-12-11T09:31:59.902Z,8.85
2022-12-11T09:33:31.909Z,8.81
2022-12-11T09:35:04.137Z,8.89
2022-12-11T09:36:36.379Z,8.88
2022-12-11T09:38:08.408Z,8.90
2022-12-11T09:39:40.434Z,8.90
2022-12-11T09:41:39.666Z,8.95
2022-12-11T09:43:30.475Z,8.92
2022-12-11T09:45:04.895Z,8.86
2022-12-11T09:46:39.779Z,8.68
2022-12-11T09:48:13.024Z,8.61
2022-12-11T09:49:45.759Z,8.53
2022-12-11T09:51:40.745Z,8.54
2022-12-11T09:53:22.588Z,8.49
2022-12-11T09:55:00.541Z,8.55
2022-12-11T09:56:50.979Z,8.57
2022-12-11T09:58:31.755Z,8.58
2022-12-11T10:00:28.527Z,8.53
2022-12-11T10:02:15.995Z,8.60
2022-12-11T10:04:13.402Z,8.54
2022-12-11T10:06:08.405Z,8.50
2022-12-11T10:08:04.129Z,8.44
2022-12-11T10:10:04.254Z,8.41
2022-12-11T10:12:03.699Z,8.37
2022-12-11T10:13:47.603Z,8.25
2022-12-11T10:15:40.760Z,8.32
2022-12-11T10:17:13.883Z,8.29
2022-12-11T10:18:46.907Z,8.22
2022-12-11T10:20:31.545Z,8.28
2022-12-11T10:22:03.891Z,8.23
2022-12-11T10:25:33.336Z,8.19
2022-12-11T10:27:20.312Z,8.21
2022-12-11T10:28:52.416Z,8.15
2022-12-11T10:30:34.515Z,8.18
2022-12-11T10:32:16.412Z,8.19
2022-12-11T10:34:02.873Z,8.22
2022-12-11T10:36:01.038Z,8.20
2022-12-11T10:37:33.488Z,8.17
2022-12-11T10:39:26.096Z,8.26
2022-12-11T10:41:04.589Z,8.25
2022-12-11T10:42:41.284Z,8.18
2022-12-11T10:44:29.888Z,8.23
2022-12-11T10:46:02.211Z,8.20
2022-12-11T10:47:34.475Z,8.14
2022-12-11T10:49:06.498Z,8.20
2022-12-11T10:50:38.901Z,8.20
2022-12-11T10:52:13.725Z,8.30
2022-12-11T10:53:58.719Z,8.31
2022-12-11T10:55:48.851Z,8.37
2022-12-11T10:58:53.880Z,8.42
2022-12-11T11:00:41.924Z,8.39
2022-12-11T11:02:36.237Z,8.44
2022-12-11T11:04:16.418Z,8.45
2022-12-11T11:05:49.623Z,8.34
2022-12-11T11:07:29.205Z,8.39
2022-12-11T11:09:02.031Z,8.42
2022-12-11T11:10:34.093Z,8.37
2022-12-11T11:12:25.019Z,8.42
2022-12-11T11:14:08.954Z,8.44
2022-12-11T11:15:40.938Z,8.45
2022-12-11T11:17:17.460Z,8.44
2022-12-11T11:18:55.008Z,8.47
2022-12-11T11:20:29.646Z,8.44
2022-12-11T11:22:06.244Z,8.46
2022-12-11T11:23:45.476Z,8.50
2022-12-11T11:25:22.109Z,8.54
2022-12-11T11:27:12.698Z,8.51
2022-12-11T11:28:50.324Z,8.57
2022-12-11T11:30:29.297Z,8.49
2022-12-11T11:33:35.737Z,8.34
2022-12-11T11:35:13.938Z,8.41
2022-12-11T11:36:56.618Z,8.44
2022-12-11T11:38:34.769Z,8.43
2022-12-11T11:40:15.736Z,8.42
2022-12-11T11:41:59.147Z,8.33
2022-12-11T11:43:41.171Z,8.36
2022-12-11T11:45:17.485Z,8.32
2022-12-11T11:47:04.362Z,8.34
2022-12-11T11:48:39.190Z,8.32
2022-12-11T11:50:18.500Z,8.30
2022-12-11T11:52:01.552Z,8.23
2022-12-11T11:53:38.419Z,8.24
2022-12-11T11:55:22.597Z,8.12
2022-12-11T11:56:56.645Z,8.01
2022-12-11T11:58:38.921Z,8.07
2022-12-11T12:00:27.587Z,8.12
2022-12-11T12:02:14.635Z,7.88
2022-12-11T12:03:48.597Z,7.87
2022-12-11T12:05:56.019Z,7.73
2022-12-11T12:07:43.703Z,7.71
2022-12-11T12:09:38.422Z,7.72
2022-12-11T12:11:23.009Z,7.70
2022-12-11T12:13:23.891Z,7.68
2022-12-11T12:15:22.254Z,7.69
2022-12-11T12:17:10.013Z,7.75
2022-12-11T12:18:44.673Z,7.77
2022-12-11T12:20:34.866Z,7.81
2022-12-11T12:22:31.656Z,7.82
2022-12-11T12:24:06.907Z,7.84
2022-12-11T12:25:43.104Z,7.86
2022-12-11T12:27:54.521Z,7.87
2022-12-11T12:29:56.112Z,7.90
2022-12-11T12:33:26.149Z,7.92
2022-12-11T12:35:03.795Z,7.91
2022-12-11T12:36:44.647Z,7.93
2022-12-11T12:38:35.551Z,7.96
2022-12-11T12:40:28.915Z,7.97
2022-12-11T12:42:44.247Z,7.98
2022-12-11T12:44:18.584Z,7.99
2022-12-11T12:46:00.659Z,8.01
2022-12-11T12:47:34.099Z,8.01
2022-12-11T12:49:12.796Z,8.04
2022-12-11T12:50:48.269Z,8.05
2022-12-11T12:52:39.626Z,8.07
2022-12-11T12:54:15.066Z,8.08
2022-12-11T12:55:48.755Z,8.08
2022-12-11T12:57:21.825Z,8.08
2022-12-11T12:58:53.910Z,8.05
2022-12-11T13:00:40.636Z,8.09
2022-12-11T13:02:14.524Z,8.09
2022-12-11T13:03:55.665Z,8.10
2022-12-11T13:05:30.232Z,8.08
2022-12-11T13:07:24.862Z,8.08
2022-12-11T13:08:56.959Z,8.04
2022-12-11T13:10:34.500Z,8.08
2022-12-11T13:12:15.043Z,8.09
2022-12-11T13:14:08.919Z,8.07
2022-12-11T13:15:45.343Z,8.03
2022-12-11T13:17:23.445Z,8.02
2022-12-11T13:18:55.388Z,7.88
2022-12-11T13:20:30.049Z,7.91
2022-12-11T13:22:22.018Z,7.91
2022-12-11T13:23:54.305Z,7.85
2022-12-11T13:25:29.516Z,7.88
2022-12-11T13:27:12.762Z,7.91
2022-12-11T13:28:44.925Z,7.91
2022-12-11T13:30:19.817Z,7.94
2022-12-11T13:31:59.518Z,8.01
2022-12-11T13:33:32.770Z,8.02
2022-12-11T13:35:06.873Z,8.05
2022-12-11T13:36:40.503Z,8.06
2022-12-11T13:38:17.853Z,8.10
2022-12-11T13:39:49.946Z,8.06
2022-12-11T13:41:22.044Z,8.06
2022-12-11T13:43:05.723Z,8.09
2022-12-11T13:44:41.031Z,8.07
2022-12-11T13:46:16.447Z,8.06
2022-12-11T13:47:48.621Z,8.05
2022-12-11T13:49:26.833Z,8.09
2022-12-11T13:50:59.717Z,8.09
2022-12-11T13:52:32.990Z,8.08
2022-12-11T13:54:20.005Z,8.13
2022-12-11T13:56:02.377Z,8.14
2022-12-11T13:57:34.419Z,8.06
2022-12-11T13:59:06.599Z,8.08
2022-12-11T14:00:38.669Z,8.07
2022-12-11T14:02:36.124Z,8.14
2022-12-11T14:04:14.396Z,8.11
2022-12-11T14:05:46.473Z,8.08
2022-12-11T14:07:37.058Z,8.13
2022-12-11T14:09:09.329Z,8.08
2022-12-11T14:10:41.420Z,8.05
2022-12-11T14:12:19.562Z,8.09
2022-12-11T14:13:51.567Z,8.06
2022-12-11T14:15:24.044Z,8.05
2022-12-11T14:16:56.310Z,8.05
2022-12-11T14:18:31.106Z,8.08
2022-12-11T14:20:08.512Z,8.08
2022-12-11T14:21:40.630Z,8.07
2022-12-11T14:23:22.836Z,8.11
2022-12-11T14:24:57.849Z,8.09
2022-12-11T14:26:32.615Z,8.09
2022-12-11T14:28:04.803Z,8.05
2022-12-11T14:29:36.889Z,7.93
2022-12-11T14:31:09.563Z,7.89
2022-12-11T14:32:45.010Z,7.75
2022-12-11T14:34:25.671Z,7.74
2022-12-11T14:35:58.233Z,7.73
2022-12-11T14:37:30.628Z,7.73
2022-12-11T14:40:54.030Z,7.70
2022-12-11T14:42:31.658Z,7.69
2022-12-11T14:44:05.719Z,7.68
2022-12-11T14:45:41.331Z,7.64
2022-12-11T14:47:26.347Z,7.63
2022-12-11T14:49:02.928Z,7.66
2022-12-11T14:50:47.819Z,7.66
2022-12-11T14:52:27.892Z,7.53
2022-12-11T14:54:00.281Z,7.49
2022-12-11T14:55:35.440Z,7.41
2022-12-11T14:57:08.252Z,7.39
2022-12-11T14:58:45.861Z,7.42
2022-12-11T15:00:29.532Z,7.43
2022-12-11T15:02:24.825Z,7.45
2022-12-11T15:04:20.634Z,7.44
2022-12-11T15:05:58.184Z,7.42
2022-12-11T15:07:30.199Z,7.33
2022-12-11T15:15:33.586Z,7.33
2022-12-11T15:17:13.009Z,7.35
2022-12-11T15:18:49.272Z,7.20
2022-12-11T15:20:31.447Z,7.12
2022-12-11T15:22:05.082Z,7.03
2022-12-11T15:23:45.942Z,7.05
2022-12-11T15:25:29.172Z,6.95
2022-12-11T15:27:01.621Z,6.94
2022-12-11T15:28:38.298Z,6.88
2022-12-11T15:30:28.659Z,6.86
2022-12-11T15:32:11.259Z,6.80
2022-12-11T15:33:48.184Z,6.76
2022-12-11T15:35:24.362Z,6.77
2022-12-11T15:36:56.425Z,6.72
2022-12-11T15:38:31.701Z,6.74
2022-12-11T15:40:05.724Z,6.74
2022-12-11T15:41:40.587Z,6.66
2022-12-11T15:43:12.577Z,6.68
2022-12-11T15:44:44.812Z,6.64
2022-12-11T15:46:19.751Z,6.64
2022-12-11T15:47:52.977Z,6.58
2022-12-11T15:49:25.086Z,6.55
2022-12-11T15:50:57.465Z,6.49
2022-12-11T15:52:29.565Z,6.46
2022-12-11T15:54:01.523Z,6.44
2022-12-11T15:55:35.354Z,6.46
2022-12-11T15:57:14.876Z,6.52
2022-12-11T15:58:51.953Z,6.50
2022-12-11T16:00:24.395Z,6.48
2022-12-11T16:01:56.467Z,6.45
2022-12-11T16:03:28.530Z,6.44
2022-12-11T16:05:00.511Z,6.43
2022-12-11T16:06:35.580Z,6.48
2022-12-11T16:08:08.239Z,6.41
2022-12-11T16:09:40.446Z,6.37
2022-12-11T16:11:14.068Z,6.41
2022-12-11T16:12:46.034Z,6.45
2022-12-11T16:14:18.051Z,6.38
2022-12-11T16:15:51.777Z,6.39
2022-12-11T16:17:24.051Z,6.34
2022-12-11T16:18:56.138Z,6.35
2022-12-11T16:20:28.550Z,6.35
2022-12-11T16:22:00.774Z,6.38
2022-12-11T16:23:32.840Z,6.37
2022-12-11T16:25:05.314Z,6.34
2022-12-11T16:26:37.302Z,6.35
2022-12-11T16:28:09.786Z,6.37
2022-12-11T16:29:42.326Z,6.36
2022-12-11T16:31:15.449Z,6.36
2022-12-11T16:32:47.523Z,6.36
2022-12-11T16:34:19.645Z,6.36
2022-12-11T16:35:52.668Z,6.34
2022-12-11T16:37:24.743Z,6.26
2022-12-11T16:38:57.144Z,6.34
2022-12-11T16:40:29.253Z,6.32
2022-12-11T16:42:01.314Z,6.35
2022-12-11T16:43:33.550Z,6.34
2022-12-11T16:45:08.892Z,6.34
2022-12-11T16:46:41.168Z,6.33
2022-12-11T16:48:13.183Z,6.30
2022-12-11T16:49:45.571Z,6.33
2022-12-11T16:51:18.301Z,6.31
2022-12-11T16:52:50.426Z,6.31
2022-12-11T16:54:22.440Z,6.31
2022-12-11T16:55:54.509Z,6.31
2022-12-11T16:57:26.640Z,6.31
2022-12-11T16:58:58.681Z,6.25
2022-12-11T17:00:30.597Z,6.31
2022-12-11T17:02:02.556Z,6.31
2022-12-11T17:03:34.562Z,6.28
2022-12-11T17:05:06.785Z,6.27
2022-12-11T17:06:38.840Z,6.27
2022-12-11T17:08:10.907Z,6.25
2022-12-11T17:09:43.387Z,6.27
2022-12-11T17:11:18.133Z,6.32
2022-12-11T17:12:50.133Z,6.29
2022-12-11T17:14:22.141Z,6.28
2022-12-11T17:15:54.206Z,6.28
2022-12-11T17:17:26.498Z,6.27
2022-12-11T17:18:58.714Z,6.29
2022-12-11T17:20:30.809Z,6.27
2022-12-11T17:22:03.051Z,6.26
2022-12-11T17:23:35.832Z,6.27
2022-12-11T17:25:08.220Z,6.29
2022-12-11T17:26:41.810Z,6.28
2022-12-11T17:28:13.944Z,6.35
2022-12-11T17:29:46.201Z,6.31
2022-12-11T17:31:19.314Z,6.31
2022-12-11T17:34:24.239Z,6.23
2022-12-11T17:35:56.442Z,6.23
2022-12-11T17:37:28.427Z,6.28
2022-12-11T17:39:00.549Z,6.26
2022-12-11T17:40:32.623Z,6.25
2022-12-11T17:42:04.828Z,6.25
2022-12-11T17:43:37.036Z,6.25
2022-12-11T17:45:09.516Z,6.27
2022-12-11T17:46:41.835Z,6.26
2022-12-11T17:48:15.106Z,6.26
2022-12-11T17:49:47.311Z,6.24
2022-12-11T17:51:24.742Z,6.24
2022-12-11T17:52:58.006Z,6.21
2022-12-11T17:54:30.047Z,6.22
2022-12-11T17:56:03.974Z,6.22
2022-12-11T17:57:38.298Z,6.16
2022-12-11T17:59:10.417Z,6.17
2022-12-11T18:00:44.835Z,6.19
2022-12-11T18:02:19.957Z,6.15
2022-12-11T18:03:52.068Z,6.12
2022-12-11T18:05:25.522Z,6.12
2022-12-11T18:06:57.505Z,6.12
2022-12-11T18:08:30.513Z,6.11
2022-12-11T18:10:02.726Z,6.11
2022-12-11T18:11:35.193Z,6.12
2022-12-11T18:13:07.508Z,6.11
2022-12-11T18:14:39.692Z,6.11
2022-12-11T18:16:19.897Z,6.15
2022-12-11T18:17:52.061Z,6.13
2022-12-11T18:19:25.688Z,6.13
2022-12-11T18:20:57.803Z,6.13
2022-12-11T18:22:29.891Z,6.14
2022-12-11T18:24:02.499Z,6.16
2022-12-11T18:25:34.687Z,6.15
2022-12-11T18:27:10.592Z,6.16
2022-12-11T18:28:43.034Z,6.15
2022-12-11T18:30:15.380Z,6.13
2022-12-11T18:31:47.550Z,6.12
2022-12-11T18:33:19.705Z,6.12
2022-12-11T18:34:51.792Z,6.07
2022-12-11T18:36:23.872Z,6.06
2022-12-11T18:37:56.141Z,6.05
2022-12-11T18:39:28.154Z,6.02
2022-12-11T18:41:04.273Z,6.04
2022-12-11T18:42:36.512Z,5.99
2022-12-11T18:44:10.138Z,5.99
2022-12-11T18:45:45.527Z,5.99
2022-12-11T18:49:02.264Z,5.91
2022-12-11T18:50:35.112Z,5.94
2022-12-11T18:52:07.271Z,5.90
2022-12-11T18:53:41.161Z,5.90
2022-12-11T18:55:13.292Z,5.84
2022-12-11T18:56:48.407Z,5.81
2022-12-11T18:58:20.910Z,5.76
2022-12-11T18:59:53.763Z,5.74
2022-12-11T19:01:29.157Z,5.75
2022-12-11T19:03:02.414Z,5.67
2022-12-11T19:04:36.521Z,5.68
2022-12-11T19:06:15.043Z,5.74
2022-12-11T19:07:47.128Z,5.69
2022-12-11T19:09:19.269Z,5.70
2022-12-11T19:10:53.784Z,5.72
2022-12-11T19:12:25.967Z,5.68
2022-12-11T19:13:58.413Z,5.67
2022-12-11T19:15:30.411Z,5.65
2022-12-11T19:17:03.496Z,5.63
2022-12-11T19:18:37.802Z,5.66
2022-12-11T19:20:40.254Z,5.63
2022-12-11T19:22:02.682Z,5.61
2022-12-11T19:23:34.712Z,5.63
2022-12-11T19:25:07.537Z,5.63
2022-12-11T19:26:39.645Z,5.61
2022-12-11T19:28:12.002Z,5.61
2022-12-11T19:29:44.085Z,5.60
2022-12-11T19:31:21.246Z,5.62
2022-12-11T19:32:53.213Z,5.60
2022-12-11T19:34:25.571Z,5.60
2022-12-11T19:36:05.595Z,5.61
2022-12-11T19:37:37.581Z,5.55
2022-12-11T19:39:13.193Z,5.55
2022-12-11T19:40:45.851Z,5.56
2022-12-11T19:42:20.167Z,5.57
2022-12-11T19:43:52.167Z,5.56
2022-12-11T19:45:24.130Z,5.55
2022-12-11T19:46:56.202Z,5.55
2022-12-11T19:48:30.744Z,5.55
2022-12-11T19:50:02.814Z,5.56
2022-12-11T19:51:38.803Z,5.58
2022-12-11T19:53:10.916Z,5.56
2022-12-11T19:54:42.933Z,5.58
2022-12-11T19:56:15.691Z,5.61
2022-12-11T19:57:48.056Z,5.61
2022-12-11T19:59:20.069Z,5.60
2022-12-11T20:00:52.223Z,5.60
2022-12-11T20:02:24.344Z,5.60
2022-12-11T20:03:58.858Z,5.63
2022-12-11T20:05:30.876Z,5.61
2022-12-11T20:07:02.997Z,5.59
2022-12-11T20:08:44.519Z,5.62
2022-12-11T20:10:17.546Z,5.62
2022-12-11T20:11:49.751Z,5.61
2022-12-11T20:13:21.947Z,5.60
2022-12-11T20:14:53.928Z,5.60
2022-12-11T20:16:46.379Z,5.62
2022-12-11T20:18:18.818Z,5.64
2022-12-11T20:19:51.977Z,5.66
2022-12-11T20:23:01.256Z,5.68
2022-12-11T20:24:33.583Z,5.68
2022-12-11T20:26:11.033Z,5.73
2022-12-11T20:27:43.226Z,5.68
2022-12-11T20:29:15.488Z,5.70
2022-12-11T20:30:49.065Z,5.67
2022-12-11T20:32:20.881Z,5.72
2022-12-11T20:33:54.019Z,5.66
2022-12-11T20:35:26.950Z,5.62
2022-12-11T20:37:00.552Z,5.63
2022-12-11T20:38:34.549Z,5.61
2022-12-11T20:40:07.620Z,5.58
2022-12-11T20:41:39.832Z,5.58
2022-12-11T20:43:11.856Z,5.59
2022-12-11T20:44:48.740Z,5.60
2022-12-11T20:46:23.814Z,5.62
2022-12-11T20:47:55.742Z,5.58
2022-12-11T20:49:27.851Z,5.56
2022-12-11T20:52:31.707Z,5.50
2022-12-11T20:54:03.860Z,5.51
2022-12-11T20:55:42.439Z,5.56
2022-12-11T20:57:16.646Z,5.54
2022-12-11T20:58:48.710Z,5.54
2022-12-11T21:00:20.912Z,5.55
2022-12-11T21:01:53.087Z,5.57
2022-12-11T21:03:25.253Z,5.57
2022-12-11T21:04:58.063Z,5.58
2022-12-11T21:06:33.963Z,5.57
2022-12-11T21:08:06.296Z,5.56
2022-12-11T21:09:39.116Z,5.57
2022-12-11T21:11:11.174Z,5.60
2022-12-11T21:12:43.299Z,5.59
2022-12-11T21:14:16.620Z,5.60
2022-12-11T21:15:52.875Z,5.60
2022-12-11T21:17:24.910Z,5.62
2022-12-11T21:18:57.795Z,5.62
2022-12-11T21:20:29.826Z,5.60
2022-12-11T21:22:01.993Z,5.59
2022-12-11T21:23:34.247Z,5.60
2022-12-11T21:25:06.650Z,5.60
2022-12-11T21:26:38.670Z,5.59
2022-12-11T21:28:10.677Z,5.57
2022-12-11T21:29:42.654Z,5.59
2022-12-11T21:31:17.440Z,5.62
2022-12-11T21:32:49.704Z,5.59
2022-12-11T21:34:25.329Z,5.61
2022-12-11T21:35:58.523Z,5.61
2022-12-11T21:37:30.605Z,5.59